sensor_id;sensor_type;location;lat;lon;timestamp;temperature;humidity
23251;DHT22;11794;49.730;10.088;2024-02-21T00:00:43;7.30;99.90
23251;DHT22;11794;49.730;10.088;2024-02-21T00:03:08;7.30;99.90
23251;DHT22;11794;49.730;10.088;2024-02-21T00:05:34;7.30;99.90
23251;DHT22;11794;49.730;10.088;2024-02-21T00:07:59;7.30;99.90
23251;DHT22;11794;49.730;10.088;2024-02-21T00:10:25;7.30;99.90
23251;DHT22;11794;49.730;10.088;2024-02-21T00:12:51;7.40;99.90
23251;DHT22;11794;49.730;10.088;2024-02-21T00:15:17;7.30;99.90
23251;DHT22;11794;49.730;10.088;2024-02-21T00:17:43;7.30;99.90
23251;DHT22;11794;49.730;10.088;2024-02-21T00:20:09;7.30;99.90
23251;DHT22;11794;49.730;10.088;2024-02-21T00:22:35;7.30;99.90
23251;DHT22;11794;49.730;10.088;2024-02-21T00:25:01;7.30;99.90
23251;DHT22;11794;49.730;10.088;2024-02-21T00:27:26;7.20;99.90
23251;DHT22;11794;49.730;10.088;2024-02-21T00:29:52;7.20;99.90
23251;DHT22;11794;49.730;10.088;2024-02-21T00:32:17;7.20;99.90
23251;DHT22;11794;49.730;10.088;2024-02-21T00:34:44;7.30;99.90
23251;DHT22;11794;49.730;10.088;2024-02-21T00:37:09;7.30;99.90
23251;DHT22;11794;49.730;10.088;2024-02-21T00:39:34;7.20;99.90
23251;DHT22;11794;49.730;10.088;2024-02-21T00:42:01;7.20;99.90
23251;DHT22;11794;49.730;10.088;2024-02-21T00:44:26;7.20;99.90
23251;DHT22;11794;49.730;10.088;2024-02-21T00:46:52;7.10;99.90
23251;DHT22;11794;49.730;10.088;2024-02-21T00:49:18;7.10;99.90
23251;DHT22;11794;49.730;10.088;2024-02-21T00:51:43;7.20;99.90
23251;DHT22;11794;49.730;10.088;2024-02-21T00:54:09;7.10;99.90
23251;DHT22;11794;49.730;10.088;2024-02-21T00:56:34;7.10;99.90
23251;DHT22;11794;49.730;10.088;2024-02-21T00:59:00;7.20;99.90
23251;DHT22;11794;49.730;10.088;2024-02-21T01:01:25;7.10;99.90
23251;DHT22;11794;49.730;10.088;2024-02-21T01:03:51;7.10;99.90
23251;DHT22;11794;49.730;10.088;2024-02-21T01:06:19;7.00;99.90
23251;DHT22;11794;49.730;10.088;2024-02-21T01:08:46;7.10;99.90
23251;DHT22;11794;49.730;10.088;2024-02-21T01:11:11;7.10;99.90
23251;DHT22;11794;49.730;10.088;2024-02-21T01:13:37;7.00;99.90
23251;DHT22;11794;49.730;10.088;2024-02-21T01:16:02;7.00;99.90
23251;DHT22;11794;49.730;10.088;2024-02-21T01:18:28;6.90;99.90
23251;DHT22;11794;49.730;10.088;2024-02-21T01:20:53;6.90;99.90
23251;DHT22;11794;49.730;10.088;2024-02-21T01:23:19;7.00;99.90
23251;DHT22;11794;49.730;10.088;2024-02-21T01:25:44;7.00;99.90
23251;DHT22;11794;49.730;10.088;2024-02-21T01:28:10;6.90;99.90
23251;DHT22;11794;49.730;10.088;2024-02-21T01:30:35;6.90;99.90
23251;DHT22;11794;49.730;10.088;2024-02-21T01:33:01;6.90;99.90
23251;DHT22;11794;49.730;10.088;2024-02-21T01:35:26;6.90;99.90
23251;DHT22;11794;49.730;10.088;2024-02-21T01:37:52;6.90;99.90
23251;DHT22;11794;49.730;10.088;2024-02-21T01:40:17;6.90;99.90
23251;DHT22;11794;49.730;10.088;2024-02-21T01:42:43;6.90;99.90
23251;DHT22;11794;49.730;10.088;2024-02-21T01:45:09;6.90;99.90
23251;DHT22;11794;49.730;10.088;2024-02-21T01:47:35;6.80;99.90
23251;DHT22;11794;49.730;10.088;2024-02-21T01:50:02;6.80;99.90
23251;DHT22;11794;49.730;10.088;2024-02-21T01:52:29;6.80;99.90
23251;DHT22;11794;49.730;10.088;2024-02-21T01:54:55;6.80;99.90
23251;DHT22;11794;49.730;10.088;2024-02-21T01:57:20;6.80;99.90
23251;DHT22;11794;49.730;10.088;2024-02-21T01:59:46;6.80;99.90
23251;DHT22;11794;49.730;10.088;2024-02-21T02:02:12;6.90;99.90
23251;DHT22;11794;49.730;10.088;2024-02-21T02:04:38;6.90;99.90
23251;DHT22;11794;49.730;10.088;2024-02-21T02:07:07;6.90;99.90
23251;DHT22;11794;49.730;10.088;2024-02-21T02:09:33;6.90;99.90
23251;DHT22;11794;49.730;10.088;2024-02-21T02:11:58;6.90;99.90
23251;DHT22;11794;49.730;10.088;2024-02-21T02:14:25;6.90;99.90
23251;DHT22;11794;49.730;10.088;2024-02-21T02:16:50;7.00;99.90
23251;DHT22;11794;49.730;10.088;2024-02-21T02:19:16;7.00;99.90
23251;DHT22;11794;49.730;10.088;2024-02-21T02:21:46;7.00;99.90
23251;DHT22;11794;49.730;10.088;2024-02-21T02:24:12;7.00;99.90
23251;DHT22;11794;49.730;10.088;2024-02-21T02:26:39;7.00;99.90
23251;DHT22;11794;49.730;10.088;2024-02-21T02:29:05;7.00;99.90
23251;DHT22;11794;49.730;10.088;2024-02-21T02:31:30;7.00;99.90
23251;DHT22;11794;49.730;10.088;2024-02-21T02:33:56;6.90;99.90
23251;DHT22;11794;49.730;10.088;2024-02-21T02:36:21;6.90;99.90
23251;DHT22;11794;49.730;10.088;2024-02-21T02:38:47;6.90;99.90
23251;DHT22;11794;49.730;10.088;2024-02-21T02:41:12;6.80;99.90
23251;DHT22;11794;49.730;10.088;2024-02-21T02:43:38;6.80;99.90
23251;DHT22;11794;49.730;10.088;2024-02-21T02:46:03;6.80;99.90
23251;DHT22;11794;49.730;10.088;2024-02-21T02:48:29;6.80;99.90
23251;DHT22;11794;49.730;10.088;2024-02-21T02:50:55;6.70;99.90
23251;DHT22;11794;49.730;10.088;2024-02-21T02:53:20;6.70;99.90
23251;DHT22;11794;49.730;10.088;2024-02-21T02:55:46;6.70;99.90
23251;DHT22;11794;49.730;10.088;2024-02-21T02:58:11;6.70;99.90
23251;DHT22;11794;49.730;10.088;2024-02-21T03:00:37;6.70;99.90
23251;DHT22;11794;49.730;10.088;2024-02-21T03:03:04;6.70;99.90
23251;DHT22;11794;49.730;10.088;2024-02-21T03:05:30;6.70;99.90
23251;DHT22;11794;49.730;10.088;2024-02-21T03:07:55;6.60;99.90
23251;DHT22;11794;49.730;10.088;2024-02-21T03:10:21;6.60;99.90
23251;DHT22;11794;49.730;10.088;2024-02-21T03:12:47;6.60;99.90
23251;DHT22;11794;49.730;10.088;2024-02-21T03:15:13;6.50;99.90
23251;DHT22;11794;49.730;10.088;2024-02-21T03:17:38;6.60;99.90
23251;DHT22;11794;49.730;10.088;2024-02-21T03:20:05;6.50;99.90
23251;DHT22;11794;49.730;10.088;2024-02-21T03:22:31;6.50;99.90
23251;DHT22;11794;49.730;10.088;2024-02-21T03:24:58;6.50;99.90
23251;DHT22;11794;49.730;10.088;2024-02-21T03:27:23;6.50;99.90
23251;DHT22;11794;49.730;10.088;2024-02-21T03:29:49;6.50;99.90
23251;DHT22;11794;49.730;10.088;2024-02-21T03:32:14;6.50;99.90
23251;DHT22;11794;49.730;10.088;2024-02-21T03:34:39;6.50;99.90
23251;DHT22;11794;49.730;10.088;2024-02-21T03:37:05;6.50;99.90
23251;DHT22;11794;49.730;10.088;2024-02-21T03:39:31;6.60;99.90
23251;DHT22;11794;49.730;10.088;2024-02-21T03:42:00;6.60;99.90
23251;DHT22;11794;49.730;10.088;2024-02-21T03:44:30;6.50;99.90
23251;DHT22;11794;49.730;10.088;2024-02-21T03:46:56;6.50;99.90
23251;DHT22;11794;49.730;10.088;2024-02-21T03:49:22;6.50;99.90
23251;DHT22;11794;49.730;10.088;2024-02-21T03:51:47;6.50;99.90
23251;DHT22;11794;49.730;10.088;2024-02-21T03:54:13;6.50;99.90
23251;DHT22;11794;49.730;10.088;2024-02-21T03:56:39;6.60;99.90
23251;DHT22;11794;49.730;10.088;2024-02-21T03:59:05;6.50;99.90
23251;DHT22;11794;49.730;10.088;2024-02-21T04:01:31;6.50;99.90
23251;DHT22;11794;49.730;10.088;2024-02-21T04:03:57;6.40;99.90
23251;DHT22;11794;49.730;10.088;2024-02-21T04:06:22;6.40;99.90
23251;DHT22;11794;49.730;10.088;2024-02-21T04:08:48;6.40;99.90
23251;DHT22;11794;49.730;10.088;2024-02-21T04:11:13;6.40;99.90
23251;DHT22;11794;49.730;10.088;2024-02-21T04:13:39;6.50;99.90
23251;DHT22;11794;49.730;10.088;2024-02-21T04:16:04;6.40;99.90
23251;DHT22;11794;49.730;10.088;2024-02-21T04:18:31;6.40;99.90
23251;DHT22;11794;49.730;10.088;2024-02-21T04:20:56;6.40;99.90
23251;DHT22;11794;49.730;10.088;2024-02-21T04:23:22;6.40;99.90
23251;DHT22;11794;49.730;10.088;2024-02-21T04:25:47;6.40;99.90
23251;DHT22;11794;49.730;10.088;2024-02-21T04:28:13;6.30;99.90
23251;DHT22;11794;49.730;10.088;2024-02-21T04:30:38;6.30;99.90
23251;DHT22;11794;49.730;10.088;2024-02-21T04:33:04;6.30;99.90
23251;DHT22;11794;49.730;10.088;2024-02-21T04:35:29;6.30;99.90
23251;DHT22;11794;49.730;10.088;2024-02-21T04:37:55;6.30;99.90
23251;DHT22;11794;49.730;10.088;2024-02-21T04:40:21;6.30;99.90
23251;DHT22;11794;49.730;10.088;2024-02-21T04:42:46;6.30;99.90
23251;DHT22;11794;49.730;10.088;2024-02-21T04:45:12;6.30;99.90
23251;DHT22;11794;49.730;10.088;2024-02-21T04:47:37;6.30;99.90
23251;DHT22;11794;49.730;10.088;2024-02-21T04:50:03;6.30;99.90
23251;DHT22;11794;49.730;10.088;2024-02-21T04:52:28;6.20;99.90
23251;DHT22;11794;49.730;10.088;2024-02-21T04:54:55;6.20;99.90
23251;DHT22;11794;49.730;10.088;2024-02-21T04:57:20;6.20;99.90
23251;DHT22;11794;49.730;10.088;2024-02-21T04:59:46;6.20;99.90
23251;DHT22;11794;49.730;10.088;2024-02-21T05:02:13;6.10;99.90
23251;DHT22;11794;49.730;10.088;2024-02-21T05:04:39;6.10;99.90
23251;DHT22;11794;49.730;10.088;2024-02-21T05:07:06;6.00;99.90
23251;DHT22;11794;49.730;10.088;2024-02-21T05:09:32;6.00;99.90
23251;DHT22;11794;49.730;10.088;2024-02-21T05:11:57;6.10;99.90
23251;DHT22;11794;49.730;10.088;2024-02-21T05:14:26;6.00;99.90
23251;DHT22;11794;49.730;10.088;2024-02-21T05:16:52;6.00;99.90
23251;DHT22;11794;49.730;10.088;2024-02-21T05:19:18;6.00;99.90
23251;DHT22;11794;49.730;10.088;2024-02-21T05:21:43;6.00;99.90
23251;DHT22;11794;49.730;10.088;2024-02-21T05:24:09;6.00;99.90
23251;DHT22;11794;49.730;10.088;2024-02-21T05:26:34;5.90;99.90
23251;DHT22;11794;49.730;10.088;2024-02-21T05:29:00;5.90;99.90
23251;DHT22;11794;49.730;10.088;2024-02-21T05:31:26;5.90;99.90
23251;DHT22;11794;49.730;10.088;2024-02-21T05:33:51;5.90;99.90
23251;DHT22;11794;49.730;10.088;2024-02-21T05:36:17;5.90;99.90
23251;DHT22;11794;49.730;10.088;2024-02-21T05:38:42;5.90;99.90
23251;DHT22;11794;49.730;10.088;2024-02-21T05:41:08;5.90;99.90
23251;DHT22;11794;49.730;10.088;2024-02-21T05:43:33;5.90;99.90
23251;DHT22;11794;49.730;10.088;2024-02-21T05:45:59;5.80;99.90
23251;DHT22;11794;49.730;10.088;2024-02-21T05:48:24;5.90;99.90
23251;DHT22;11794;49.730;10.088;2024-02-21T05:50:50;5.90;99.90
23251;DHT22;11794;49.730;10.088;2024-02-21T05:53:16;5.90;99.90
23251;DHT22;11794;49.730;10.088;2024-02-21T05:55:42;5.90;99.90
23251;DHT22;11794;49.730;10.088;2024-02-21T05:58:07;5.90;99.90
23251;DHT22;11794;49.730;10.088;2024-02-21T06:00:37;5.80;99.90
23251;DHT22;11794;49.730;10.088;2024-02-21T06:03:02;5.80;99.90
23251;DHT22;11794;49.730;10.088;2024-02-21T06:05:28;5.80;99.90
23251;DHT22;11794;49.730;10.088;2024-02-21T06:07:53;5.80;99.90
23251;DHT22;11794;49.730;10.088;2024-02-21T06:10:19;5.80;99.90
23251;DHT22;11794;49.730;10.088;2024-02-21T06:12:45;5.80;99.90
23251;DHT22;11794;49.730;10.088;2024-02-21T06:15:10;5.80;99.90
23251;DHT22;11794;49.730;10.088;2024-02-21T06:17:35;5.80;99.90
23251;DHT22;11794;49.730;10.088;2024-02-21T06:20:01;5.70;99.90
23251;DHT22;11794;49.730;10.088;2024-02-21T06:22:26;5.70;99.90
23251;DHT22;11794;49.730;10.088;2024-02-21T06:24:52;5.70;99.90
23251;DHT22;11794;49.730;10.088;2024-02-21T06:27:19;5.70;99.90
23251;DHT22;11794;49.730;10.088;2024-02-21T06:29:45;5.70;99.90
23251;DHT22;11794;49.730;10.088;2024-02-21T06:32:10;5.70;99.90
23251;DHT22;11794;49.730;10.088;2024-02-21T06:34:36;5.70;99.90
23251;DHT22;11794;49.730;10.088;2024-02-21T06:37:01;5.80;99.90
23251;DHT22;11794;49.730;10.088;2024-02-21T06:39:27;5.80;99.90
23251;DHT22;11794;49.730;10.088;2024-02-21T06:41:54;5.80;99.90
23251;DHT22;11794;49.730;10.088;2024-02-21T06:44:20;6.00;99.90
23251;DHT22;11794;49.730;10.088;2024-02-21T06:46:46;6.10;99.90
23251;DHT22;11794;49.730;10.088;2024-02-21T06:49:11;6.20;99.90
23251;DHT22;11794;49.730;10.088;2024-02-21T06:51:44;6.20;99.90
23251;DHT22;11794;49.730;10.088;2024-02-21T06:54:10;6.40;99.90
23251;DHT22;11794;49.730;10.088;2024-02-21T06:56:36;6.50;99.90
23251;DHT22;11794;49.730;10.088;2024-02-21T06:59:02;6.50;99.90
23251;DHT22;11794;49.730;10.088;2024-02-21T07:01:29;6.60;99.90
23251;DHT22;11794;49.730;10.088;2024-02-21T07:03:54;6.70;99.90
23251;DHT22;11794;49.730;10.088;2024-02-21T07:06:20;6.90;99.90
23251;DHT22;11794;49.730;10.088;2024-02-21T07:08:45;7.10;99.90
23251;DHT22;11794;49.730;10.088;2024-02-21T07:11:11;7.20;99.90
23251;DHT22;11794;49.730;10.088;2024-02-21T07:13:36;7.10;99.90
23251;DHT22;11794;49.730;10.088;2024-02-21T07:16:02;7.00;99.90
23251;DHT22;11794;49.730;10.088;2024-02-21T07:18:27;6.90;99.90
23251;DHT22;11794;49.730;10.088;2024-02-21T07:20:53;6.80;99.90
23251;DHT22;11794;49.730;10.088;2024-02-21T07:23:18;6.80;99.90
23251;DHT22;11794;49.730;10.088;2024-02-21T07:25:44;6.80;99.90
23251;DHT22;11794;49.730;10.088;2024-02-21T07:28:10;6.80;99.90
23251;DHT22;11794;49.730;10.088;2024-02-21T07:30:35;6.70;99.90
23251;DHT22;11794;49.730;10.088;2024-02-21T07:33:01;6.70;99.90
23251;DHT22;11794;49.730;10.088;2024-02-21T07:35:26;6.70;99.90
23251;DHT22;11794;49.730;10.088;2024-02-21T07:37:52;6.70;99.90
23251;DHT22;11794;49.730;10.088;2024-02-21T07:40:18;6.80;99.90
23251;DHT22;11794;49.730;10.088;2024-02-21T07:42:44;6.80;99.90
23251;DHT22;11794;49.730;10.088;2024-02-21T07:45:09;6.90;99.90
23251;DHT22;11794;49.730;10.088;2024-02-21T07:47:36;6.90;99.90
23251;DHT22;11794;49.730;10.088;2024-02-21T07:50:02;7.00;99.90
23251;DHT22;11794;49.730;10.088;2024-02-21T07:52:28;7.10;99.90
23251;DHT22;11794;49.730;10.088;2024-02-21T07:54:53;7.10;99.90
23251;DHT22;11794;49.730;10.088;2024-02-21T07:57:19;7.20;99.90
23251;DHT22;11794;49.730;10.088;2024-02-21T07:59:45;7.20;99.90
23251;DHT22;11794;49.730;10.088;2024-02-21T08:02:15;7.20;99.90
23251;DHT22;11794;49.730;10.088;2024-02-21T08:04:41;7.20;99.90
23251;DHT22;11794;49.730;10.088;2024-02-21T08:07:06;7.20;99.90
23251;DHT22;11794;49.730;10.088;2024-02-21T08:09:32;7.20;99.90
23251;DHT22;11794;49.730;10.088;2024-02-21T08:11:57;7.30;99.90
23251;DHT22;11794;49.730;10.088;2024-02-21T08:14:23;7.30;99.90
23251;DHT22;11794;49.730;10.088;2024-02-21T08:16:50;7.30;99.90
23251;DHT22;11794;49.730;10.088;2024-02-21T08:19:16;7.40;99.90
23251;DHT22;11794;49.730;10.088;2024-02-21T08:21:42;7.50;99.90
23251;DHT22;11794;49.730;10.088;2024-02-21T08:24:07;7.40;99.90
23251;DHT22;11794;49.730;10.088;2024-02-21T08:26:33;7.50;99.90
23251;DHT22;11794;49.730;10.088;2024-02-21T08:28:58;7.60;99.90
23251;DHT22;11794;49.730;10.088;2024-02-21T08:31:25;7.70;99.90
23251;DHT22;11794;49.730;10.088;2024-02-21T08:33:57;7.70;99.90
23251;DHT22;11794;49.730;10.088;2024-02-21T08:36:30;7.80;99.90
23251;DHT22;11794;49.730;10.088;2024-02-21T08:38:56;7.80;99.90
23251;DHT22;11794;49.730;10.088;2024-02-21T08:41:26;7.70;99.90
23251;DHT22;11794;49.730;10.088;2024-02-21T08:43:52;7.70;99.90
23251;DHT22;11794;49.730;10.088;2024-02-21T08:46:22;7.60;99.90
23251;DHT22;11794;49.730;10.088;2024-02-21T08:48:52;7.70;99.90
23251;DHT22;11794;49.730;10.088;2024-02-21T08:51:18;7.80;99.90
23251;DHT22;11794;49.730;10.088;2024-02-21T08:53:48;7.80;99.90
23251;DHT22;11794;49.730;10.088;2024-02-21T08:56:13;7.80;99.90
23251;DHT22;11794;49.730;10.088;2024-02-21T08:58:39;7.80;99.90
23251;DHT22;11794;49.730;10.088;2024-02-21T09:01:05;7.80;99.90
23251;DHT22;11794;49.730;10.088;2024-02-21T09:03:38;8.00;99.90
23251;DHT22;11794;49.730;10.088;2024-02-21T09:06:07;8.30;99.90
23251;DHT22;11794;49.730;10.088;2024-02-21T09:08:33;8.80;99.90
23251;DHT22;11794;49.730;10.088;2024-02-21T09:11:02;9.10;99.90
23251;DHT22;11794;49.730;10.088;2024-02-21T09:13:28;9.70;99.90
23251;DHT22;11794;49.730;10.088;2024-02-21T09:15:54;10.10;99.90
23251;DHT22;11794;49.730;10.088;2024-02-21T09:18:19;10.60;99.90
23251;DHT22;11794;49.730;10.088;2024-02-21T09:20:45;10.80;99.90
23251;DHT22;11794;49.730;10.088;2024-02-21T09:23:11;10.90;99.90
23251;DHT22;11794;49.730;10.088;2024-02-21T09:25:37;10.70;99.90
23251;DHT22;11794;49.730;10.088;2024-02-21T09:28:03;10.90;99.90
23251;DHT22;11794;49.730;10.088;2024-02-21T09:30:29;11.30;99.90
23251;DHT22;11794;49.730;10.088;2024-02-21T09:32:54;10.80;99.90
23251;DHT22;11794;49.730;10.088;2024-02-21T09:35:20;10.40;99.90
23251;DHT22;11794;49.730;10.088;2024-02-21T09:37:48;10.10;99.90
23251;DHT22;11794;49.730;10.088;2024-02-21T09:40:15;10.00;99.90
23251;DHT22;11794;49.730;10.088;2024-02-21T09:42:44;10.00;99.90
23251;DHT22;11794;49.730;10.088;2024-02-21T09:45:25;9.90;99.90
23251;DHT22;11794;49.730;10.088;2024-02-21T09:50:55;10.00;99.90
23251;DHT22;11794;49.730;10.088;2024-02-21T09:53:23;9.80;99.90
23251;DHT22;11794;49.730;10.088;2024-02-21T09:55:49;9.80;99.90
23251;DHT22;11794;49.730;10.088;2024-02-21T09:58:15;9.70;99.90
23251;DHT22;11794;49.730;10.088;2024-02-21T10:00:41;9.70;99.90
23251;DHT22;11794;49.730;10.088;2024-02-21T10:03:07;9.70;99.90
23251;DHT22;11794;49.730;10.088;2024-02-21T10:05:36;9.80;99.90
23251;DHT22;11794;49.730;10.088;2024-02-21T10:08:02;9.70;99.90
23251;DHT22;11794;49.730;10.088;2024-02-21T10:10:28;9.80;99.90
23251;DHT22;11794;49.730;10.088;2024-02-21T10:12:55;9.90;99.90
23251;DHT22;11794;49.730;10.088;2024-02-21T10:15:21;9.90;99.90
23251;DHT22;11794;49.730;10.088;2024-02-21T10:17:58;9.80;99.90
23251;DHT22;11794;49.730;10.088;2024-02-21T10:20:24;9.80;99.90
23251;DHT22;11794;49.730;10.088;2024-02-21T10:23:03;9.70;99.90
23251;DHT22;11794;49.730;10.088;2024-02-21T10:25:34;9.60;99.90
23251;DHT22;11794;49.730;10.088;2024-02-21T10:27:59;9.80;99.90
23251;DHT22;11794;49.730;10.088;2024-02-21T10:30:25;9.90;99.90
23251;DHT22;11794;49.730;10.088;2024-02-21T10:32:51;10.00;99.90
23251;DHT22;11794;49.730;10.088;2024-02-21T10:35:26;10.30;99.90
23251;DHT22;11794;49.730;10.088;2024-02-21T10:37:53;10.40;99.90
23251;DHT22;11794;49.730;10.088;2024-02-21T10:40:26;10.60;99.90
23251;DHT22;11794;49.730;10.088;2024-02-21T10:42:59;10.80;99.90
23251;DHT22;11794;49.730;10.088;2024-02-21T10:45:36;10.90;99.90
23251;DHT22;11794;49.730;10.088;2024-02-21T10:48:11;10.90;99.90
23251;DHT22;11794;49.730;10.088;2024-02-21T10:54:11;10.90;99.90
23251;DHT22;11794;49.730;10.088;2024-02-21T10:56:32;11.10;99.90
23251;DHT22;11794;49.730;10.088;2024-02-21T10:59:03;11.60;99.90
23251;DHT22;11794;49.730;10.088;2024-02-21T11:01:29;11.30;99.90
23251;DHT22;11794;49.730;10.088;2024-02-21T11:03:59;11.30;99.90
23251;DHT22;11794;49.730;10.088;2024-02-21T11:06:27;11.50;99.90
23251;DHT22;11794;49.730;10.088;2024-02-21T11:09:07;11.70;99.90
23251;DHT22;11794;49.730;10.088;2024-02-21T11:11:38;11.80;99.90
23251;DHT22;11794;49.730;10.088;2024-02-21T11:14:17;12.10;99.90
23251;DHT22;11794;49.730;10.088;2024-02-21T11:16:43;12.40;99.90
23251;DHT22;11794;49.730;10.088;2024-02-21T11:19:10;12.60;99.90
23251;DHT22;11794;49.730;10.088;2024-02-21T11:21:44;12.70;99.90
23251;DHT22;11794;49.730;10.088;2024-02-21T11:24:09;12.40;99.90
23251;DHT22;11794;49.730;10.088;2024-02-21T11:26:37;12.30;99.90
23251;DHT22;11794;49.730;10.088;2024-02-21T11:29:03;12.30;99.90
23251;DHT22;11794;49.730;10.088;2024-02-21T11:31:44;12.30;99.90
23251;DHT22;11794;49.730;10.088;2024-02-21T11:34:11;12.40;99.90
23251;DHT22;11794;49.730;10.088;2024-02-21T11:36:49;12.30;99.90
23251;DHT22;11794;49.730;10.088;2024-02-21T11:39:23;12.00;99.90
23251;DHT22;11794;49.730;10.088;2024-02-21T11:42:01;11.70;99.90
23251;DHT22;11794;49.730;10.088;2024-02-21T11:44:26;11.60;99.90
23251;DHT22;11794;49.730;10.088;2024-02-21T11:46:52;11.50;99.90
23251;DHT22;11794;49.730;10.088;2024-02-21T11:49:17;11.40;99.90
23251;DHT22;11794;49.730;10.088;2024-02-21T11:51:43;11.40;99.90
23251;DHT22;11794;49.730;10.088;2024-02-21T11:54:09;11.50;99.90
23251;DHT22;11794;49.730;10.088;2024-02-21T11:56:37;11.50;99.90
23251;DHT22;11794;49.730;10.088;2024-02-21T11:59:02;11.40;99.90
23251;DHT22;11794;49.730;10.088;2024-02-21T12:01:28;11.30;99.90
23251;DHT22;11794;49.730;10.088;2024-02-21T12:03:54;11.20;99.90
23251;DHT22;11794;49.730;10.088;2024-02-21T12:06:21;11.20;99.90
23251;DHT22;11794;49.730;10.088;2024-02-21T12:08:47;11.30;99.90
23251;DHT22;11794;49.730;10.088;2024-02-21T12:11:20;11.70;99.90
23251;DHT22;11794;49.730;10.088;2024-02-21T12:13:46;12.10;99.90
23251;DHT22;11794;49.730;10.088;2024-02-21T12:16:15;12.20;99.90
23251;DHT22;11794;49.730;10.088;2024-02-21T12:18:41;12.60;99.90
23251;DHT22;11794;49.730;10.088;2024-02-21T12:21:07;12.80;99.90
23251;DHT22;11794;49.730;10.088;2024-02-21T12:23:33;13.20;99.90
23251;DHT22;11794;49.730;10.088;2024-02-21T12:25:59;13.10;99.90
23251;DHT22;11794;49.730;10.088;2024-02-21T12:28:25;12.80;99.90
23251;DHT22;11794;49.730;10.088;2024-02-21T12:30:51;12.50;99.90
23251;DHT22;11794;49.730;10.088;2024-02-21T12:33:17;12.10;99.90
23251;DHT22;11794;49.730;10.088;2024-02-21T12:35:43;12.00;99.90
23251;DHT22;11794;49.730;10.088;2024-02-21T12:38:08;11.80;99.90
23251;DHT22;11794;49.730;10.088;2024-02-21T12:40:34;11.60;99.90
23251;DHT22;11794;49.730;10.088;2024-02-21T12:43:00;11.60;99.90
23251;DHT22;11794;49.730;10.088;2024-02-21T12:45:28;11.50;99.90
23251;DHT22;11794;49.730;10.088;2024-02-21T12:47:53;11.40;99.90
23251;DHT22;11794;49.730;10.088;2024-02-21T12:50:19;11.30;99.90
23251;DHT22;11794;49.730;10.088;2024-02-21T12:52:45;11.40;99.90
23251;DHT22;11794;49.730;10.088;2024-02-21T12:55:11;11.30;99.90
23251;DHT22;11794;49.730;10.088;2024-02-21T12:57:38;11.20;99.90
23251;DHT22;11794;49.730;10.088;2024-02-21T13:00:05;11.10;99.90
23251;DHT22;11794;49.730;10.088;2024-02-21T13:02:34;11.00;99.90
23251;DHT22;11794;49.730;10.088;2024-02-21T13:04:59;11.10;99.90
23251;DHT22;11794;49.730;10.088;2024-02-21T13:07:26;11.10;99.90
23251;DHT22;11794;49.730;10.088;2024-02-21T13:09:51;11.20;99.90
23251;DHT22;11794;49.730;10.088;2024-02-21T13:12:17;11.30;99.90
23251;DHT22;11794;49.730;10.088;2024-02-21T13:14:43;11.30;99.90
23251;DHT22;11794;49.730;10.088;2024-02-21T13:17:09;11.30;99.90
23251;DHT22;11794;49.730;10.088;2024-02-21T13:19:34;11.40;99.90
23251;DHT22;11794;49.730;10.088;2024-02-21T13:22:00;11.40;99.90
23251;DHT22;11794;49.730;10.088;2024-02-21T13:24:27;11.50;99.90
23251;DHT22;11794;49.730;10.088;2024-02-21T13:26:53;11.60;99.90
23251;DHT22;11794;49.730;10.088;2024-02-21T13:29:18;11.50;99.90
23251;DHT22;11794;49.730;10.088;2024-02-21T13:31:45;11.60;99.90
23251;DHT22;11794;49.730;10.088;2024-02-21T13:34:11;11.60;99.90
23251;DHT22;11794;49.730;10.088;2024-02-21T13:36:36;11.80;99.90
23251;DHT22;11794;49.730;10.088;2024-02-21T13:39:02;11.90;99.90
23251;DHT22;11794;49.730;10.088;2024-02-21T13:41:30;12.10;99.90
23251;DHT22;11794;49.730;10.088;2024-02-21T13:43:56;12.10;99.90
23251;DHT22;11794;49.730;10.088;2024-02-21T13:46:21;12.10;99.90
23251;DHT22;11794;49.730;10.088;2024-02-21T13:48:47;12.10;99.90
23251;DHT22;11794;49.730;10.088;2024-02-21T13:51:12;11.90;99.90
23251;DHT22;11794;49.730;10.088;2024-02-21T13:53:38;11.80;99.90
23251;DHT22;11794;49.730;10.088;2024-02-21T13:56:04;11.80;99.90
23251;DHT22;11794;49.730;10.088;2024-02-21T13:58:29;11.80;99.90
23251;DHT22;11794;49.730;10.088;2024-02-21T14:00:55;11.80;99.90
23251;DHT22;11794;49.730;10.088;2024-02-21T14:03:21;11.70;99.90
23251;DHT22;11794;49.730;10.088;2024-02-21T14:05:47;11.60;99.90
23251;DHT22;11794;49.730;10.088;2024-02-21T14:08:14;11.40;99.90
23251;DHT22;11794;49.730;10.088;2024-02-21T14:10:40;11.30;99.90
23251;DHT22;11794;49.730;10.088;2024-02-21T14:13:05;11.20;99.90
23251;DHT22;11794;49.730;10.088;2024-02-21T14:15:31;11.30;99.90
23251;DHT22;11794;49.730;10.088;2024-02-21T14:17:56;11.20;99.90
23251;DHT22;11794;49.730;10.088;2024-02-21T14:20:22;11.00;99.90
23251;DHT22;11794;49.730;10.088;2024-02-21T14:22:47;10.90;99.90
23251;DHT22;11794;49.730;10.088;2024-02-21T14:25:13;10.80;99.90
23251;DHT22;11794;49.730;10.088;2024-02-21T14:27:40;10.80;99.90
23251;DHT22;11794;49.730;10.088;2024-02-21T14:30:06;10.80;99.90
23251;DHT22;11794;49.730;10.088;2024-02-21T14:32:36;10.80;99.90
23251;DHT22;11794;49.730;10.088;2024-02-21T14:35:01;10.80;99.90
23251;DHT22;11794;49.730;10.088;2024-02-21T14:37:27;10.80;99.90
23251;DHT22;11794;49.730;10.088;2024-02-21T14:39:53;10.70;99.90
23251;DHT22;11794;49.730;10.088;2024-02-21T14:42:18;10.60;99.90
23251;DHT22;11794;49.730;10.088;2024-02-21T14:44:44;10.60;99.90
23251;DHT22;11794;49.730;10.088;2024-02-21T14:47:09;10.70;99.90
23251;DHT22;11794;49.730;10.088;2024-02-21T14:49:35;10.60;99.90
23251;DHT22;11794;49.730;10.088;2024-02-21T14:52:01;10.70;99.90
23251;DHT22;11794;49.730;10.088;2024-02-21T14:54:27;10.70;99.90
23251;DHT22;11794;49.730;10.088;2024-02-21T14:56:52;10.70;99.90
23251;DHT22;11794;49.730;10.088;2024-02-21T14:59:19;10.60;99.90
23251;DHT22;11794;49.730;10.088;2024-02-21T15:01:45;10.60;99.90
23251;DHT22;11794;49.730;10.088;2024-02-21T15:04:10;10.70;99.90
23251;DHT22;11794;49.730;10.088;2024-02-21T15:06:36;10.60;99.90
23251;DHT22;11794;49.730;10.088;2024-02-21T15:09:02;10.70;99.90
23251;DHT22;11794;49.730;10.088;2024-02-21T15:11:28;10.70;99.90
23251;DHT22;11794;49.730;10.088;2024-02-21T15:13:54;10.70;99.90
23251;DHT22;11794;49.730;10.088;2024-02-21T15:16:19;10.60;99.90
23251;DHT22;11794;49.730;10.088;2024-02-21T15:18:45;10.70;99.90
23251;DHT22;11794;49.730;10.088;2024-02-21T15:21:11;10.60;99.90
23251;DHT22;11794;49.730;10.088;2024-02-21T15:23:39;10.50;99.90
23251;DHT22;11794;49.730;10.088;2024-02-21T15:26:05;10.50;99.90